TimeCST,TemperatureF,Dew PointF,Humidity,Sea Level PressureIn,VisibilityMPH,Wind Direction,Wind SpeedMPH,Gust SpeedMPH,PrecipitationIn,Events,Conditions,WindDirDegrees,DateUTC
12:53 AM,30.9,17.1,57,30.38,10.0,SSE,4.6,-,N/A,,Clear,160,2013-02-16 06:53:00
1:53 AM,27.0,15.1,61,30.38,10.0,Calm,Calm,-,N/A,,Clear,0,2013-02-16 07:53:00
2:53 AM,26.1,15.1,63,30.39,10.0,NE,4.6,-,N/A,,Clear,40,2013-02-16 08:53:00
3:53 AM,24.1,14.0,65,30.39,10.0,North,6.9,-,N/A,,Clear,360,2013-02-16 09:53:00
4:53 AM,23.0,12.9,65,30.38,10.0,North,5.8,-,N/A,,Clear,360,2013-02-16 10:53:00
5:53 AM,21.9,12.9,68,30.39,10.0,North,5.8,-,N/A,,Clear,10,2013-02-16 11:53:00
6:53 AM,21.9,12.9,68,30.40,10.0,North,5.8,-,N/A,,Clear,350,2013-02-16 12:53:00
7:53 AM,21.9,12.9,68,30.41,10.0,NW,3.5,-,N/A,,Clear,320,2013-02-16 13:53:00
8:53 AM,30.9,16.0,54,30.41,10.0,Calm,Calm,-,N/A,,Clear,0,2013-02-16 14:53:00
9:53 AM,39.9,19.9,45,30.40,10.0,Calm,Calm,-,N/A,,Clear,0,2013-02-16 15:53:00
10:53 AM,48.0,25.0,41,30.38,10.0,WSW,4.6,-,N/A,,Clear,250,2013-02-16 16:53:00
11:53 AM,53.1,24.1,32,30.34,10.0,SW,9.2,-,N/A,,Clear,230,2013-02-16 17:53:00
12:53 PM,57.0,18.0,22,30.30,10.0,SW,6.9,-,N/A,,Clear,230,2013-02-16 18:53:00
1:53 PM,60.1,16.0,18,30.25,10.0,SW,10.4,18.4,N/A,,Clear,220,2013-02-16 19:53:00
2:53 PM,63.0,16.0,16,30.19,10.0,SW,10.4,-,N/A,,Clear,220,2013-02-16 20:53:00
3:53 PM,64.9,12.9,13,30.16,10.0,WSW,10.4,18.4,N/A,,Clear,250,2013-02-16 21:53:00
4:53 PM,66.0,16.0,15,30.13,10.0,SSW,10.4,-,N/A,,Clear,200,2013-02-16 22:53:00
5:53 PM,64.9,7.0,10,30.10,10.0,SW,15.0,-,N/A,,Clear,230,2013-02-16 23:53:00
6:53 PM,57.0,9.0,15,30.11,10.0,SSW,6.9,-,N/A,,Clear,210,2013-02-17 00:53:00
7:53 PM,51.1,10.9,20,30.12,10.0,SSW,10.4,-,N/A,,Clear,210,2013-02-17 01:53:00
8:53 PM,51.1,9.0,18,30.11,10.0,SSW,6.9,-,N/A,,Clear,210,2013-02-17 02:53:00
9:53 PM,52.0,9.0,18,30.09,10.0,SW,11.5,-,N/A,,Clear,230,2013-02-17 03:53:00
10:53 PM,48.9,10.0,21,30.08,10.0,SW,8.1,-,N/A,,Clear,230,2013-02-17 04:53:00
11:53 PM,41.0,10.0,28,30.07,10.0,South,6.9,-,N/A,,Clear,190,2013-02-17 05:53:00